createdAt,value
2018-03-11T00:02:10.117Z,15.43
2018-03-11T00:04:37.584Z,16.90
2018-03-11T00:07:05.054Z,17.17
2018-03-11T00:09:32.504Z,17.67
2018-03-11T00:12:06.903Z,16.87
2018-03-11T00:14:34.369Z,17.50
2018-03-11T00:17:01.832Z,16.90
2018-03-11T00:19:29.284Z,17.23
2018-03-11T00:21:56.749Z,18.87
2018-03-11T00:24:24.195Z,18.10
2018-03-11T00:26:51.653Z,17.10
2018-03-11T00:29:19.175Z,17.50
2018-03-11T00:31:46.564Z,18.03
2018-03-11T00:34:14.009Z,16.40
2018-03-11T00:36:41.468Z,16.70
2018-03-11T00:39:08.921Z,15.55
2018-03-11T00:41:36.381Z,16.43
2018-03-11T00:44:03.841Z,15.27
2018-03-11T00:46:31.289Z,15.83
2018-03-11T00:48:59.077Z,15.77
2018-03-11T00:51:26.529Z,18.70
2018-03-11T00:53:54.007Z,17.10
2018-03-11T00:56:21.461Z,17.10
2018-03-11T00:58:48.912Z,15.50
2018-03-11T01:01:16.379Z,16.30
2018-03-11T01:03:43.845Z,16.70
2018-03-11T01:06:11.326Z,16.20
2018-03-11T01:08:39.549Z,15.80
2018-03-11T01:11:07.832Z,16.67
2018-03-11T01:13:35.292Z,15.73
2018-03-11T01:16:02.745Z,16.47
2018-03-11T01:18:30.201Z,14.87
2018-03-11T01:20:57.657Z,16.70
2018-03-11T01:23:25.106Z,15.53
2018-03-11T01:25:52.564Z,15.70
2018-03-11T01:28:20.005Z,16.10
2018-03-11T01:30:47.456Z,14.63
2018-03-11T01:33:15.054Z,14.53
2018-03-11T01:35:42.514Z,14.00
2018-03-11T01:38:09.964Z,14.07
2018-03-11T01:40:37.404Z,14.60
2018-03-11T01:43:05.287Z,14.30
2018-03-11T01:45:32.734Z,17.20
2018-03-11T01:48:00.189Z,17.50
2018-03-11T01:50:27.642Z,16.67
2018-03-11T01:53:07.014Z,17.10
2018-03-11T01:55:34.464Z,14.77
2018-03-11T01:58:01.925Z,15.30
2018-03-11T02:00:29.372Z,14.57
2018-03-11T02:02:56.841Z,14.80
2018-03-11T02:05:26.025Z,14.68
2018-03-11T02:07:53.472Z,15.83
2018-03-11T02:10:20.920Z,16.93
2018-03-11T02:12:48.383Z,14.23
2018-03-11T02:15:15.824Z,16.63
2018-03-11T02:17:43.279Z,15.70
2018-03-11T02:20:10.740Z,16.07
2018-03-11T02:22:38.192Z,16.27
2018-03-11T02:25:05.635Z,17.00
2018-03-11T02:27:33.855Z,16.50
2018-03-11T02:30:01.333Z,16.63
2018-03-11T02:32:28.787Z,15.57
2018-03-11T02:34:56.237Z,15.20
2018-03-11T02:37:23.696Z,16.70
2018-03-11T02:39:51.144Z,15.10
2018-03-11T02:42:18.604Z,14.97
2018-03-11T02:44:46.046Z,15.20
2018-03-11T02:47:13.517Z,14.53
2018-03-11T02:49:41.076Z,13.90
2018-03-11T02:52:08.532Z,12.17
2018-03-11T02:54:35.988Z,12.60
2018-03-11T02:57:03.449Z,13.43
2018-03-11T02:59:30.906Z,13.17
2018-03-11T03:01:58.361Z,14.77
2018-03-11T03:04:25.820Z,15.73
2018-03-11T03:06:53.280Z,16.10
2018-03-11T03:09:20.995Z,13.87
2018-03-11T03:11:49.068Z,13.80
2018-03-11T03:14:16.532Z,13.60
2018-03-11T03:16:44.744Z,13.40
2018-03-11T03:19:12.192Z,13.17
2018-03-11T03:21:39.640Z,13.23
2018-03-11T03:24:07.116Z,14.20
2018-03-11T03:26:34.561Z,13.30
2018-03-11T03:29:02.026Z,12.60
2018-03-11T03:31:29.480Z,13.00
2018-03-11T03:33:57.952Z,13.15
2018-03-11T03:36:25.421Z,12.10
2018-03-11T03:38:52.887Z,13.90
2018-03-11T03:41:20.348Z,13.90
2018-03-11T03:43:47.808Z,12.80
2018-03-11T03:46:15.380Z,13.38
2018-03-11T03:48:42.855Z,13.90
2018-03-11T03:51:11.068Z,11.47
2018-03-11T03:53:38.526Z,11.93
2018-03-11T03:56:05.989Z,12.80
2018-03-11T03:58:33.475Z,12.07
2018-03-11T04:01:00.926Z,11.57
2018-03-11T04:03:28.385Z,10.53
2018-03-11T04:05:55.832Z,11.80
2018-03-11T04:08:23.284Z,12.80
2018-03-11T04:10:50.733Z,13.27
2018-03-11T04:13:18.195Z,12.33
2018-03-11T04:15:45.640Z,14.57
2018-03-11T04:18:13.093Z,12.07
2018-03-11T04:20:40.591Z,13.13
2018-03-11T04:23:08.807Z,12.07
2018-03-11T04:25:36.327Z,11.70
2018-03-11T04:28:03.773Z,12.47
2018-03-11T04:30:31.235Z,11.63
2018-03-11T04:32:58.681Z,10.47
2018-03-11T04:35:26.144Z,10.03
2018-03-11T04:37:53.593Z,9.23
2018-03-11T04:40:21.054Z,10.17
2018-03-11T04:42:48.492Z,10.70
2018-03-11T04:45:15.964Z,11.00
2018-03-11T04:47:43.409Z,10.70
2018-03-11T04:50:10.866Z,11.07
2018-03-11T04:52:38.305Z,10.35
2018-03-11T04:55:20.235Z,11.17
2018-03-11T04:57:47.684Z,10.73
2018-03-11T05:00:15.136Z,11.13
2018-03-11T05:02:42.583Z,11.20
2018-03-11T05:05:10.036Z,11.07
2018-03-11T05:07:37.485Z,11.70
2018-03-11T05:10:04.946Z,11.53
2018-03-11T05:12:32.389Z,11.90
2018-03-11T05:14:59.848Z,10.90
2018-03-11T05:17:27.295Z,11.23
2018-03-11T05:19:55.512Z,10.40
2018-03-11T05:22:22.960Z,11.17
2018-03-11T05:24:50.513Z,12.80
2018-03-11T05:27:17.951Z,11.23
2018-03-11T05:29:46.169Z,11.50
2018-03-11T05:32:13.641Z,11.37
2018-03-11T05:34:41.092Z,10.90
2018-03-11T05:37:08.652Z,11.00
2018-03-11T05:39:36.119Z,11.00
2018-03-11T05:42:03.680Z,11.90
2018-03-11T05:44:31.892Z,10.67
2018-03-11T05:46:59.352Z,10.43
2018-03-11T05:49:26.812Z,10.07
2018-03-11T05:51:54.311Z,11.10
2018-03-11T05:54:21.759Z,11.40
2018-03-11T05:56:49.236Z,11.20
2018-03-11T05:59:16.685Z,11.80
2018-03-11T06:01:44.139Z,10.43
2018-03-11T06:04:11.589Z,11.27
2018-03-11T06:06:39.038Z,10.80
2018-03-11T06:09:06.496Z,9.10
2018-03-11T06:11:33.960Z,10.43
2018-03-11T06:14:01.401Z,9.73
2018-03-11T06:16:28.853Z,10.57
2018-03-11T06:18:56.310Z,9.93
2018-03-11T06:21:23.767Z,10.60
2018-03-11T06:23:51.212Z,10.10
2018-03-11T06:26:18.675Z,10.10
2018-03-11T06:28:53.785Z,9.50
2018-03-11T06:31:22.043Z,10.53
2018-03-11T06:33:49.474Z,10.23
2018-03-11T06:36:16.936Z,10.37
2018-03-11T06:38:44.389Z,10.20
2018-03-11T06:41:11.849Z,13.00
2018-03-11T06:43:39.300Z,10.67
2018-03-11T06:46:24.067Z,10.10
2018-03-11T06:48:51.522Z,9.20
2018-03-11T06:51:18.964Z,9.93
2018-03-11T06:53:46.448Z,10.97
2018-03-11T06:56:13.910Z,11.57
2018-03-11T06:58:41.780Z,10.53
2018-03-11T07:01:09.231Z,10.40
2018-03-11T07:03:36.676Z,9.80
2018-03-11T07:06:04.124Z,8.57
2018-03-11T07:08:31.605Z,8.60
2018-03-11T07:10:59.057Z,9.47
2018-03-11T07:13:26.515Z,9.77
2018-03-11T07:15:53.961Z,9.10
2018-03-11T07:18:21.409Z,10.77
2018-03-11T07:20:48.853Z,11.00
2018-03-11T07:23:17.765Z,14.33
2018-03-11T07:25:45.209Z,14.40
2018-03-11T07:28:12.682Z,14.70
2018-03-11T07:30:40.124Z,12.33
2018-03-11T07:33:07.577Z,13.40
2018-03-11T07:35:35.029Z,14.23
2018-03-11T07:38:02.489Z,12.00
2018-03-11T07:40:29.963Z,11.60
2018-03-11T07:42:57.413Z,12.50
2018-03-11T07:45:25.801Z,11.80
2018-03-11T07:47:53.250Z,11.70
2018-03-11T07:50:20.706Z,11.10
2018-03-11T07:52:48.197Z,11.30
2018-03-11T07:55:15.668Z,10.87
2018-03-11T07:57:43.915Z,11.63
2018-03-11T08:00:11.360Z,12.47
2018-03-11T08:02:38.812Z,12.00
2018-03-11T08:05:06.300Z,13.60
2018-03-11T08:07:33.857Z,12.20
2018-03-11T08:10:01.313Z,12.30
2018-03-11T08:12:28.756Z,11.80
2018-03-11T08:14:56.217Z,12.00
2018-03-11T08:17:23.751Z,12.00
2018-03-11T08:19:51.203Z,10.60
2018-03-11T08:22:18.656Z,10.60
2018-03-11T08:24:46.114Z,9.53
2018-03-11T08:27:13.556Z,5.97
2018-03-11T08:29:41.008Z,5.03
2018-03-11T08:32:09.224Z,5.37
2018-03-11T08:34:36.769Z,5.00
2018-03-11T08:37:04.197Z,5.20
2018-03-11T08:39:32.424Z,4.67
2018-03-11T08:41:59.955Z,4.47
2018-03-11T08:44:27.453Z,3.60
2018-03-11T08:46:54.901Z,3.40
2018-03-11T08:49:22.359Z,4.25
2018-03-11T08:51:49.797Z,3.80
2018-03-11T08:54:17.266Z,3.77
2018-03-11T08:56:44.703Z,3.40
2018-03-11T08:59:12.147Z,3.20
2018-03-11T09:01:39.608Z,3.93
2018-03-11T09:04:07.068Z,3.27
2018-03-11T09:06:38.311Z,5.30
2018-03-11T09:09:05.755Z,6.20
2018-03-11T09:11:33.977Z,7.47
2018-03-11T09:14:01.561Z,9.27
2018-03-11T09:16:29.072Z,9.40
2018-03-11T09:18:56.525Z,9.80
2018-03-11T09:21:23.985Z,9.17
2018-03-11T09:23:51.429Z,9.60
2018-03-11T09:26:18.942Z,8.13
2018-03-11T09:28:46.380Z,8.03
2018-03-11T09:31:13.855Z,8.50
2018-03-11T09:33:42.221Z,8.10
2018-03-11T09:36:09.675Z,7.18
2018-03-11T09:38:37.136Z,6.70
2018-03-11T09:41:04.705Z,5.63
2018-03-11T09:43:32.148Z,5.50
2018-03-11T09:45:59.604Z,5.83
2018-03-11T09:48:27.049Z,6.33
2018-03-11T09:50:54.516Z,5.73
2018-03-11T09:53:21.948Z,5.30
2018-03-11T09:55:49.410Z,4.43
2018-03-11T09:58:16.853Z,4.10
2018-03-11T10:00:44.322Z,4.40
2018-03-11T10:03:11.769Z,5.07
2018-03-11T10:05:39.233Z,3.30
2018-03-11T10:08:06.680Z,3.27
2018-03-11T10:10:34.159Z,4.03
2018-03-11T10:13:01.592Z,5.40
2018-03-11T10:15:29.041Z,3.10
2018-03-11T10:17:57.256Z,1.43
2018-03-11T10:20:24.735Z,1.30
2018-03-11T10:22:52.185Z,1.20
2018-03-11T10:25:19.649Z,1.50
2018-03-11T10:27:47.100Z,1.30
2018-03-11T10:30:14.546Z,1.53
2018-03-11T10:32:42.915Z,1.87
2018-03-11T10:35:10.390Z,1.53
2018-03-11T10:37:37.845Z,1.90
2018-03-11T10:40:05.292Z,1.40
2018-03-11T10:42:32.749Z,3.17
2018-03-11T10:45:00.201Z,2.07
2018-03-11T10:47:27.673Z,2.53
2018-03-11T10:49:55.137Z,1.37
2018-03-11T10:52:22.581Z,2.20
2018-03-11T10:54:50.801Z,1.50
2018-03-11T10:57:19.076Z,1.30
2018-03-11T10:59:46.540Z,1.40
2018-03-11T11:02:18.400Z,1.50
2018-03-11T11:04:51.529Z,1.60
2018-03-11T11:07:18.986Z,1.40
2018-03-11T11:09:46.444Z,1.87
2018-03-11T11:12:19.957Z,1.40
2018-03-11T11:14:47.409Z,1.50
2018-03-11T11:17:14.876Z,1.67
2018-03-11T11:19:42.328Z,1.50
2018-03-11T11:22:09.772Z,1.80
2018-03-11T11:24:37.221Z,1.47
2018-03-11T11:27:04.677Z,1.60
2018-03-11T11:29:32.176Z,1.30
2018-03-11T11:32:00.420Z,1.20
2018-03-11T11:34:27.868Z,1.60
2018-03-11T11:36:55.316Z,1.30
2018-03-11T11:39:22.764Z,1.70
2018-03-11T11:41:50.208Z,1.80
2018-03-11T11:44:18.438Z,1.40
2018-03-11T11:46:45.893Z,1.40
2018-03-11T11:49:13.344Z,1.30
2018-03-11T11:51:40.791Z,2.37
2018-03-11T11:54:08.256Z,1.67
2018-03-11T11:56:35.708Z,1.57
2018-03-11T11:59:03.164Z,1.63
2018-03-11T12:01:30.617Z,1.50
2018-03-11T12:03:58.082Z,1.20
2018-03-11T12:06:25.527Z,1.50
2018-03-11T12:08:52.976Z,1.37
2018-03-11T12:11:20.420Z,1.63
2018-03-11T12:13:48.664Z,2.10
2018-03-11T12:16:17.611Z,1.90
2018-03-11T12:18:45.073Z,1.33
2018-03-11T12:21:12.539Z,1.30
2018-03-11T12:23:40.005Z,1.40
2018-03-11T12:26:07.450Z,1.20
2018-03-11T12:28:34.897Z,1.30
2018-03-11T12:31:02.354Z,1.30
2018-03-11T12:33:29.796Z,2.10
2018-03-11T12:35:57.240Z,1.50
2018-03-11T12:38:25.464Z,1.70
2018-03-11T12:40:52.925Z,2.63
2018-03-11T12:43:20.372Z,2.20
2018-03-11T12:45:47.827Z,1.83
2018-03-11T12:48:15.282Z,1.87
2018-03-11T12:50:42.734Z,2.73
2018-03-11T12:53:10.186Z,2.10
2018-03-11T12:55:37.640Z,3.00
2018-03-11T12:58:05.137Z,1.90
2018-03-11T13:00:33.298Z,2.50
2018-03-11T13:03:00.751Z,2.53
2018-03-11T13:05:28.333Z,1.90
2018-03-11T13:07:55.790Z,2.67
2018-03-11T13:10:23.248Z,3.00
2018-03-11T13:12:50.705Z,3.23
2018-03-11T13:15:18.163Z,3.33
2018-03-11T13:17:45.615Z,3.60
2018-03-11T13:20:25.004Z,2.90
2018-03-11T13:22:52.508Z,2.90
2018-03-11T13:25:20.179Z,3.28
2018-03-11T13:27:59.565Z,2.80
2018-03-11T13:30:27.016Z,3.27
2018-03-11T13:33:06.234Z,2.83
2018-03-11T13:35:34.448Z,2.83
2018-03-11T13:51:41.940Z,2.77
2018-03-11T13:54:09.388Z,2.57
2018-03-11T13:56:36.841Z,2.67
2018-03-11T13:59:04.289Z,2.93
2018-03-11T14:01:32.052Z,3.00
2018-03-11T14:03:59.503Z,2.70
2018-03-11T14:06:26.958Z,3.10
2018-03-11T14:08:54.433Z,2.43
2018-03-11T14:11:21.880Z,3.13
2018-03-11T14:13:49.334Z,3.85
2018-03-11T14:16:16.792Z,2.87
2018-03-11T14:18:44.260Z,3.43
2018-03-11T14:21:11.705Z,3.50
2018-03-11T14:23:40.064Z,2.90
2018-03-11T14:26:08.284Z,4.07
2018-03-11T14:28:35.755Z,3.53
2018-03-11T14:31:03.238Z,4.03
2018-03-11T14:33:31.456Z,4.10
2018-03-11T14:35:59.009Z,4.60
2018-03-11T14:38:26.451Z,4.00
2018-03-11T14:40:54.681Z,3.97
2018-03-11T14:43:22.138Z,3.30
2018-03-11T14:45:49.588Z,3.47
2018-03-11T14:48:17.032Z,4.10
2018-03-11T14:50:44.521Z,5.07
2018-03-11T14:53:11.959Z,4.40
2018-03-11T14:55:39.416Z,5.57
2018-03-11T14:58:06.865Z,5.10
2018-03-11T15:00:34.320Z,5.70
2018-03-11T15:03:01.764Z,6.10
2018-03-11T15:05:29.211Z,7.07
2018-03-11T15:07:56.676Z,5.67
2018-03-11T15:10:24.130Z,5.63
2018-03-11T15:12:51.576Z,9.20
2018-03-11T15:15:19.045Z,8.37
2018-03-11T15:17:46.495Z,6.30
2018-03-11T15:20:13.954Z,6.43
2018-03-11T15:22:41.426Z,6.77
2018-03-11T15:25:08.868Z,6.63
2018-03-11T15:27:36.336Z,6.60
2018-03-11T15:30:03.784Z,6.73
2018-03-11T15:32:31.236Z,6.13
2018-03-11T15:34:58.698Z,5.67
2018-03-11T15:37:32.750Z,6.00
2018-03-11T15:40:00.195Z,5.73
2018-03-11T15:42:27.652Z,4.83
2018-03-11T15:44:55.096Z,4.20
2018-03-11T15:47:22.555Z,4.33
2018-03-11T15:49:50.043Z,4.87
2018-03-11T15:52:17.514Z,5.07
2018-03-11T15:54:44.972Z,5.13
2018-03-11T15:57:13.196Z,4.67
2018-03-11T15:59:40.638Z,6.90
2018-03-11T16:02:08.095Z,7.20
2018-03-11T16:04:35.544Z,7.57
2018-03-11T16:07:02.997Z,6.63
2018-03-11T16:09:31.217Z,6.80
2018-03-11T16:11:58.684Z,7.40
2018-03-11T16:14:26.151Z,7.50
2018-03-11T16:16:54.384Z,14.00
2018-03-11T16:19:21.837Z,5.37
2018-03-11T16:21:49.297Z,5.00
2018-03-11T16:24:28.381Z,7.80
2018-03-11T16:26:45.261Z,7.87
2018-03-11T16:29:12.710Z,5.87
2018-03-11T16:31:40.164Z,13.87
2018-03-11T16:34:07.621Z,11.30
2018-03-11T16:36:35.095Z,9.13
2018-03-11T16:39:02.535Z,7.80
2018-03-11T16:41:29.992Z,8.00
2018-03-11T16:43:57.448Z,8.07
2018-03-11T16:46:24.944Z,7.80
2018-03-11T16:48:52.495Z,9.07
2018-03-11T16:51:19.943Z,9.00
2018-03-11T16:53:47.394Z,9.47
2018-03-11T16:56:20.728Z,7.30
2018-03-11T16:58:48.941Z,7.40
2018-03-11T17:01:16.429Z,10.30
2018-03-11T17:03:51.149Z,8.00
2018-03-11T17:06:18.597Z,8.70
2018-03-11T17:08:46.066Z,9.07
2018-03-11T17:11:13.517Z,8.57
2018-03-11T17:13:40.960Z,8.57
2018-03-11T17:16:08.405Z,6.17
2018-03-11T17:18:35.864Z,5.30
2018-03-11T17:21:03.309Z,7.23
2018-03-11T17:23:30.760Z,5.07
2018-03-11T17:25:58.215Z,4.97
2018-03-11T17:28:26.437Z,8.00
2018-03-11T17:30:53.892Z,7.85
2018-03-11T17:33:21.353Z,10.40
2018-03-11T17:35:48.828Z,10.30
2018-03-11T17:38:16.296Z,11.80
2018-03-11T17:40:44.833Z,10.38
2018-03-11T17:43:12.296Z,10.00
2018-03-11T17:45:39.771Z,10.10
2018-03-11T17:48:07.208Z,9.10
2018-03-11T17:50:34.654Z,9.27
2018-03-11T17:53:02.132Z,9.43
2018-03-11T17:55:35.544Z,10.27
2018-03-11T17:58:03.024Z,10.37
2018-03-11T18:00:30.464Z,14.00
2018-03-11T18:02:57.935Z,15.27
2018-03-11T18:05:25.486Z,16.55
2018-03-11T18:07:52.936Z,17.17
2018-03-11T18:10:20.404Z,11.13
2018-03-11T18:12:47.870Z,13.57
2018-03-11T18:15:16.089Z,13.53
2018-03-11T18:17:43.642Z,10.30
2018-03-11T18:20:11.088Z,9.97
2018-03-11T18:22:38.592Z,8.93
2018-03-11T18:25:06.066Z,10.70
2018-03-11T18:27:33.517Z,9.10
2018-03-11T18:30:00.970Z,10.43
2018-03-11T18:32:28.417Z,10.00
2018-03-11T18:34:55.872Z,10.87
2018-03-11T18:37:23.353Z,10.63
2018-03-11T18:39:50.781Z,11.47
2018-03-11T18:42:18.215Z,11.13
2018-03-11T18:44:45.677Z,9.83
2018-03-11T18:47:13.134Z,9.50
2018-03-11T18:49:40.639Z,10.23
2018-03-11T18:52:11.996Z,9.50
2018-03-11T18:54:39.455Z,10.00
2018-03-11T18:57:07.022Z,11.33
2018-03-11T18:59:34.435Z,11.63
2018-03-11T19:02:01.899Z,10.20
2018-03-11T19:04:29.344Z,10.23
2018-03-11T19:06:56.811Z,11.10
2018-03-11T19:09:24.256Z,10.33
2018-03-11T19:11:51.715Z,10.40
2018-03-11T19:14:19.161Z,11.80
2018-03-11T19:16:46.616Z,15.20
2018-03-11T19:19:14.071Z,11.50
2018-03-11T19:21:41.545Z,13.77
2018-03-11T19:24:08.989Z,12.77
2018-03-11T19:26:36.440Z,12.33
2018-03-11T19:29:03.937Z,12.00
2018-03-11T19:31:31.403Z,12.70
2018-03-11T19:33:58.853Z,11.60
2018-03-11T19:36:26.324Z,12.60
2018-03-11T19:38:53.770Z,14.80
2018-03-11T19:41:21.237Z,19.17
2018-03-11T19:43:48.684Z,19.80
2018-03-11T19:46:16.145Z,18.93
2018-03-11T19:48:43.591Z,17.80
2018-03-11T19:51:11.040Z,16.90
2018-03-11T19:53:38.497Z,24.20
2018-03-11T19:56:05.980Z,23.10
2018-03-11T19:58:33.404Z,16.13
2018-03-11T20:01:00.880Z,13.43
2018-03-11T20:03:28.333Z,13.37
2018-03-11T20:05:55.827Z,15.35
2018-03-11T20:08:24.063Z,16.43
2018-03-11T20:10:51.519Z,16.00
2018-03-11T20:13:18.967Z,18.73
2018-03-11T20:15:47.757Z,17.37
2018-03-11T20:18:15.205Z,16.93
2018-03-11T20:20:42.669Z,17.80
2018-03-11T20:23:10.123Z,15.73
2018-03-11T20:25:37.584Z,15.83
2018-03-11T20:28:05.044Z,17.77
2018-03-11T20:30:32.489Z,18.70
2018-03-11T20:32:59.940Z,18.90
2018-03-11T20:35:27.492Z,17.43
2018-03-11T20:37:54.980Z,17.80
2018-03-11T20:40:22.459Z,15.77
2018-03-11T20:42:49.891Z,17.53
2018-03-11T20:45:17.369Z,17.63
2018-03-11T20:47:44.826Z,15.33
2018-03-11T20:50:13.049Z,14.77
2018-03-11T20:52:40.518Z,14.60
2018-03-11T20:55:07.965Z,15.13
2018-03-11T20:57:35.424Z,11.97
2018-03-11T21:00:03.713Z,12.30
2018-03-11T21:02:31.171Z,13.00
2018-03-11T21:04:58.632Z,13.80
2018-03-11T21:07:26.084Z,12.17
2018-03-11T21:09:53.532Z,11.90
2018-03-11T21:12:21.066Z,12.40
2018-03-11T21:14:48.520Z,14.17
2018-03-11T21:17:16.746Z,16.67
2018-03-11T21:19:44.219Z,21.70
2018-03-11T21:22:11.677Z,22.93
2018-03-11T21:24:40.650Z,27.73
2018-03-11T21:27:08.092Z,19.87
2018-03-11T21:29:35.555Z,17.30
2018-03-11T21:32:02.996Z,14.60
2018-03-11T21:34:30.459Z,25.83
2018-03-11T21:36:57.949Z,22.60
2018-03-11T21:39:25.433Z,21.60
2018-03-11T21:41:52.892Z,23.43
2018-03-11T21:44:21.779Z,26.70
2018-03-11T21:46:49.237Z,20.00
2018-03-11T21:49:17.475Z,17.20
2018-03-11T21:51:44.934Z,12.00
2018-03-11T21:54:12.410Z,13.43
2018-03-11T21:56:39.881Z,14.07
2018-03-11T21:59:07.344Z,17.10
2018-03-11T22:01:35.556Z,17.87
2018-03-11T22:04:03.017Z,17.50
2018-03-11T22:06:30.467Z,17.70
2018-03-11T22:08:57.925Z,17.00
2018-03-11T22:11:25.376Z,18.10
2018-03-11T22:13:52.837Z,16.13
2018-03-11T22:16:20.291Z,14.80
2018-03-11T22:18:47.767Z,15.27
2018-03-11T22:21:15.227Z,13.40
2018-03-11T22:23:42.684Z,13.87
2018-03-11T22:26:10.128Z,16.30
2018-03-11T22:28:37.585Z,19.13
2018-03-11T22:31:05.032Z,13.40
2018-03-11T22:33:32.507Z,17.67
2018-03-11T22:35:59.954Z,16.43
2018-03-11T22:38:27.404Z,17.07
2018-03-11T22:40:54.859Z,15.33
2018-03-11T22:43:22.304Z,15.97
2018-03-11T22:45:50.525Z,14.00
2018-03-11T22:48:17.997Z,16.27
2018-03-11T22:50:45.452Z,16.60
2018-03-11T22:53:12.914Z,16.53
2018-03-11T22:55:40.369Z,16.70
2018-03-11T22:58:07.829Z,16.00
2018-03-11T23:00:35.281Z,15.23
2018-03-11T23:03:02.728Z,16.43
2018-03-11T23:05:30.179Z,16.10
2018-03-11T23:07:57.632Z,16.50
2018-03-11T23:10:25.102Z,16.20
2018-03-11T23:12:52.556Z,16.62
2018-03-11T23:15:20.021Z,17.37
2018-03-11T23:17:47.476Z,16.87
2018-03-11T23:20:14.933Z,16.80
2018-03-11T23:22:42.383Z,16.20
2018-03-11T23:25:09.858Z,16.30
2018-03-11T23:27:37.336Z,15.37
2018-03-11T23:30:05.559Z,14.40
2018-03-11T23:32:33.019Z,12.30
2018-03-11T23:35:00.489Z,12.50
2018-03-11T23:37:27.928Z,11.97
2018-03-11T23:39:55.369Z,12.03
2018-03-11T23:42:22.825Z,15.60
2018-03-11T23:44:50.276Z,13.18
2018-03-11T23:47:17.739Z,12.77
2018-03-11T23:49:45.183Z,9.93
2018-03-11T23:52:13.407Z,9.17
2018-03-11T23:54:40.844Z,8.33
2018-03-11T23:57:08.313Z,9.00
2018-03-11T23:59:35.766Z,9.83
